createdAt,value
2018-07-11T00:01:58.907Z,20.00
2018-07-11T00:04:27.187Z,20.00
2018-07-11T00:06:55.421Z,20.00
2018-07-11T00:09:23.671Z,20.00
2018-07-11T00:11:51.912Z,19.90
2018-07-11T00:14:20.146Z,19.90
2018-07-11T00:16:53.857Z,19.90
2018-07-11T00:19:22.097Z,19.90
2018-07-11T00:21:50.360Z,19.90
2018-07-11T00:24:18.598Z,19.90
2018-07-11T00:29:21.437Z,19.80
2018-07-11T00:36:45.706Z,19.80
2018-07-11T00:39:14.046Z,19.70
2018-07-11T00:41:42.358Z,19.70
2018-07-11T00:44:10.677Z,19.70
2018-07-11T00:46:39.018Z,19.70
2018-07-11T00:49:07.406Z,19.70
2018-07-11T00:51:35.690Z,19.70
2018-07-11T00:54:04.003Z,19.60
2018-07-11T00:56:32.638Z,19.70
2018-07-11T00:59:10.105Z,19.60
2018-07-11T01:01:41.022Z,19.60
2018-07-11T01:04:09.337Z,19.60
2018-07-11T01:06:37.638Z,19.60
2018-07-11T01:09:05.922Z,19.60
2018-07-11T01:11:35.521Z,19.60
2018-07-11T01:14:03.814Z,19.50
2018-07-11T01:16:32.937Z,19.50
2018-07-11T01:19:05.499Z,19.50
2018-07-11T01:21:34.391Z,19.50
2018-07-11T01:24:02.708Z,19.50
2018-07-11T01:26:33.029Z,19.50
2018-07-11T01:29:01.394Z,19.40
2018-07-11T01:31:29.674Z,19.50
2018-07-11T01:33:58.470Z,19.50
2018-07-11T01:36:27.164Z,19.50
2018-07-11T01:38:56.179Z,19.40
2018-07-11T01:41:24.464Z,19.40
2018-07-11T01:43:52.748Z,19.40
2018-07-11T01:46:21.079Z,19.40
2018-07-11T01:48:49.374Z,19.40
2018-07-11T01:51:17.668Z,19.40
2018-07-11T01:53:46.195Z,19.40
2018-07-11T01:56:14.581Z,19.40
2018-07-11T01:58:44.988Z,19.40
2018-07-11T02:01:13.521Z,19.40
2018-07-11T02:03:41.971Z,19.30
2018-07-11T02:06:10.308Z,19.30
2018-07-11T02:08:38.621Z,19.30
2018-07-11T02:11:06.945Z,19.30
2018-07-11T02:13:35.565Z,19.30
2018-07-11T02:16:03.893Z,19.30
2018-07-11T02:18:32.214Z,19.30
2018-07-11T02:21:00.525Z,19.30
2018-07-11T02:23:36.895Z,19.30
2018-07-11T02:26:05.414Z,19.30
2018-07-11T02:28:33.790Z,19.30
2018-07-11T02:31:02.431Z,19.30
2018-07-11T02:35:58.765Z,19.30
2018-07-11T02:38:27.062Z,19.20
2018-07-11T02:40:55.354Z,19.30
2018-07-11T02:43:23.638Z,19.20
2018-07-11T02:45:52.055Z,19.20
2018-07-11T02:48:20.863Z,19.20
2018-07-11T02:50:49.205Z,19.20
2018-07-11T02:53:20.282Z,19.20
2018-07-11T02:55:49.274Z,19.20
2018-07-11T02:58:17.587Z,19.20
2018-07-11T03:00:46.122Z,19.20
2018-07-11T03:03:14.911Z,19.20
2018-07-11T03:05:43.274Z,19.20
2018-07-11T03:08:11.888Z,19.20
2018-07-11T03:10:40.482Z,19.20
2018-07-11T03:13:09.168Z,19.10
2018-07-11T03:15:37.459Z,19.10
2018-07-11T03:18:06.151Z,19.10
2018-07-11T03:20:34.420Z,19.20
2018-07-11T03:23:02.767Z,19.10
2018-07-11T03:25:31.129Z,19.10
2018-07-11T03:27:59.510Z,19.10
2018-07-11T03:30:27.786Z,19.10
2018-07-11T03:32:56.075Z,19.10
2018-07-11T03:35:24.372Z,19.10
2018-07-11T03:37:52.930Z,19.10
2018-07-11T03:40:21.241Z,19.10
2018-07-11T03:42:49.571Z,19.10
2018-07-11T03:45:17.870Z,19.10
2018-07-11T03:47:46.185Z,19.10
2018-07-11T03:50:14.479Z,19.10
2018-07-11T03:52:42.769Z,19.10
2018-07-11T03:55:11.087Z,19.10
2018-07-11T03:57:39.425Z,19.10
2018-07-11T04:00:07.773Z,19.10
2018-07-11T04:02:36.019Z,19.10
2018-07-11T04:05:04.318Z,19.10
2018-07-11T04:07:32.657Z,19.10
2018-07-11T04:10:00.962Z,19.10
2018-07-11T04:12:29.251Z,19.10
2018-07-11T04:14:57.520Z,19.10
2018-07-11T04:17:25.833Z,19.00
2018-07-11T04:19:54.285Z,19.10
2018-07-11T04:22:22.560Z,19.10
2018-07-11T04:27:18.866Z,18.70
2018-07-11T04:29:47.534Z,18.60
2018-07-11T04:32:15.850Z,18.60
2018-07-11T04:34:44.210Z,18.70
2018-07-11T04:37:12.507Z,18.70
2018-07-11T04:39:40.824Z,18.80
2018-07-11T04:42:09.166Z,18.80
2018-07-11T04:44:37.469Z,18.80
2018-07-11T04:47:05.759Z,18.80
2018-07-11T04:49:34.074Z,18.70
2018-07-11T04:52:02.599Z,18.70
2018-07-11T04:54:30.926Z,18.60
2018-07-11T04:56:59.238Z,18.60
2018-07-11T04:59:27.522Z,18.70
2018-07-11T05:01:55.806Z,18.70
2018-07-11T05:04:24.154Z,18.70
2018-07-11T05:06:52.455Z,18.70
2018-07-11T05:09:20.722Z,18.70
2018-07-11T05:11:48.984Z,18.60
2018-07-11T05:14:17.278Z,18.70
2018-07-11T05:16:45.530Z,18.70
2018-07-11T05:19:13.787Z,18.70
2018-07-11T05:21:42.060Z,18.80
2018-07-11T05:24:10.317Z,18.70
2018-07-11T05:26:38.622Z,18.70
2018-07-11T05:29:06.898Z,18.70
2018-07-11T05:31:35.146Z,18.70
2018-07-11T05:34:03.411Z,18.70
2018-07-11T05:36:31.775Z,18.80
2018-07-11T05:39:00.348Z,18.70
2018-07-11T05:41:28.919Z,18.70
2018-07-11T05:43:57.727Z,18.70
2018-07-11T05:46:25.994Z,18.70
2018-07-11T05:48:54.292Z,18.70
2018-07-11T05:51:22.559Z,18.70
2018-07-11T05:53:50.825Z,18.70
2018-07-11T05:56:20.070Z,18.70
2018-07-11T05:58:48.446Z,18.60
2018-07-11T06:01:16.762Z,18.40
2018-07-11T06:03:45.023Z,18.40
2018-07-11T06:06:14.122Z,18.50
2018-07-11T06:08:42.473Z,18.60
2018-07-11T06:11:24.157Z,18.60
2018-07-11T06:13:53.359Z,18.50
2018-07-11T06:16:21.966Z,18.50
2018-07-11T06:18:50.546Z,18.50
2018-07-11T06:21:19.533Z,18.50
2018-07-11T06:23:47.889Z,18.60
2018-07-11T06:26:16.217Z,18.60
2018-07-11T06:28:44.483Z,18.60
2018-07-11T06:31:12.731Z,18.60
2018-07-11T06:33:41.061Z,18.60
2018-07-11T06:36:09.425Z,18.70
2018-07-11T06:38:38.094Z,18.70
2018-07-11T06:41:06.434Z,18.70
2018-07-11T06:43:34.694Z,18.70
2018-07-11T06:46:02.983Z,18.70
2018-07-11T06:48:31.248Z,18.80
2018-07-11T06:50:59.498Z,18.80
2018-07-11T06:53:27.774Z,18.80
2018-07-11T06:55:56.099Z,18.70
2018-07-11T06:58:24.549Z,18.70
2018-07-11T07:00:52.853Z,18.70
2018-07-11T07:03:21.170Z,18.60
2018-07-11T07:05:50.305Z,18.80
2018-07-11T07:08:18.662Z,18.80
2018-07-11T07:10:46.981Z,18.60
2018-07-11T07:13:15.242Z,18.70
2018-07-11T07:15:43.517Z,18.80
2018-07-11T07:18:11.797Z,18.80
2018-07-11T07:20:40.064Z,18.80
2018-07-11T07:23:08.355Z,18.80
2018-07-11T07:25:36.652Z,18.90
2018-07-11T07:28:04.942Z,18.90
2018-07-11T07:30:33.214Z,18.70
2018-07-11T07:33:01.499Z,18.80
2018-07-11T07:35:29.766Z,18.80
2018-07-11T07:37:58.050Z,18.80
2018-07-11T07:40:26.342Z,18.80
2018-07-11T07:42:54.645Z,18.80
2018-07-11T07:45:22.977Z,18.90
2018-07-11T07:47:51.269Z,18.80
2018-07-11T07:50:19.622Z,18.80
2018-07-11T07:52:48.001Z,18.80
2018-07-11T07:55:16.299Z,18.80
2018-07-11T07:57:44.632Z,18.70
2018-07-11T08:00:12.929Z,18.70
2018-07-11T08:02:41.284Z,18.80
2018-07-11T08:05:10.218Z,18.90
2018-07-11T08:07:39.011Z,18.90
2018-07-11T08:10:08.186Z,19.00
2018-07-11T08:12:37.054Z,19.00
2018-07-11T08:15:05.793Z,19.10
2018-07-11T08:17:34.065Z,19.20
2018-07-11T08:23:41.570Z,19.20
2018-07-11T08:26:21.611Z,19.20
2018-07-11T08:31:03.234Z,19.20
2018-07-11T08:34:00.567Z,19.30
2018-07-11T08:36:41.038Z,19.40
2018-07-11T08:39:23.467Z,19.50
2018-07-11T08:46:13.393Z,19.50
2018-07-11T08:48:53.136Z,19.50
2018-07-11T08:51:31.007Z,19.60
2018-07-11T08:54:19.204Z,19.60
2018-07-11T08:57:12.418Z,19.60
2018-07-11T09:01:56.409Z,19.50
2018-07-11T09:04:36.054Z,19.50
2018-07-11T09:09:21.268Z,19.40
2018-07-11T09:14:10.022Z,19.40
2018-07-11T09:18:53.694Z,19.50
2018-07-11T09:22:35.382Z,19.50
2018-07-11T09:25:03.646Z,19.60
2018-07-11T09:27:31.926Z,19.50
2018-07-11T09:30:00.418Z,19.60
2018-07-11T09:32:28.776Z,19.70
2018-07-11T09:34:57.045Z,19.50
2018-07-11T09:37:25.367Z,19.60
2018-07-11T09:39:53.653Z,19.60
2018-07-11T09:42:22.058Z,19.60
2018-07-11T09:44:50.578Z,19.70
2018-07-11T09:47:24.326Z,19.80
2018-07-11T09:49:52.622Z,19.80
2018-07-11T09:52:20.933Z,19.80
2018-07-11T09:54:49.190Z,19.90
2018-07-11T09:57:17.530Z,20.00
2018-07-11T09:59:45.811Z,20.10
2018-07-11T10:02:14.079Z,20.20
2018-07-11T10:04:42.571Z,20.30
2018-07-11T10:07:11.155Z,20.30
2018-07-11T10:09:39.474Z,20.40
2018-07-11T10:12:07.801Z,20.30
2018-07-11T10:14:36.114Z,20.40
2018-07-11T10:17:04.414Z,20.30
2018-07-11T10:19:32.725Z,20.40
2018-07-11T10:22:01.039Z,20.50
2018-07-11T10:26:57.322Z,20.70
2018-07-11T10:29:25.674Z,20.70
2018-07-11T10:34:22.057Z,20.80
2018-07-11T10:36:50.354Z,20.70
2018-07-11T10:39:18.638Z,20.60
2018-07-11T10:41:46.886Z,20.60
2018-07-11T10:44:15.238Z,20.50
2018-07-11T10:46:43.522Z,20.50
2018-07-11T10:49:11.855Z,20.50
2018-07-11T10:51:40.131Z,20.50
2018-07-11T10:54:08.435Z,20.40
2018-07-11T10:56:36.745Z,20.30
2018-07-11T10:59:05.023Z,20.20
2018-07-11T11:01:33.365Z,20.30
2018-07-11T11:04:01.614Z,20.20
2018-07-11T11:08:57.961Z,20.30
2018-07-11T11:11:26.232Z,20.40
2018-07-11T11:13:54.562Z,20.40
2018-07-11T11:16:22.858Z,20.30
2018-07-11T11:18:51.168Z,20.30
2018-07-11T11:21:19.444Z,20.30
2018-07-11T11:23:47.780Z,20.40
2018-07-11T11:26:16.330Z,20.50
2018-07-11T11:28:44.605Z,20.60
2018-07-11T11:31:12.901Z,20.60
2018-07-11T11:33:41.198Z,20.70
2018-07-11T11:36:09.515Z,20.50
2018-07-11T11:38:37.821Z,20.70
2018-07-11T11:41:06.269Z,20.70
2018-07-11T11:43:34.615Z,20.70
2018-07-11T11:46:02.882Z,20.80
2018-07-11T11:48:31.178Z,20.80
2018-07-11T11:50:59.533Z,20.80
2018-07-11T11:53:27.866Z,20.90
2018-07-11T11:55:56.148Z,20.90
2018-07-11T11:58:24.417Z,21.00
2018-07-11T12:03:20.737Z,21.00
2018-07-11T12:05:49.093Z,21.10
2018-07-11T12:08:20.382Z,21.10
2018-07-11T12:10:48.665Z,21.10
2018-07-11T12:13:16.957Z,21.00
2018-07-11T12:15:45.245Z,20.90
2018-07-11T12:18:13.614Z,20.90
2018-07-11T12:20:41.928Z,21.00
2018-07-11T12:23:10.304Z,21.00
2018-07-11T12:25:48.803Z,21.00
2018-07-11T12:28:17.162Z,21.10
2018-07-11T12:30:45.507Z,21.10
2018-07-11T12:33:13.834Z,21.00
2018-07-11T12:35:43.179Z,21.10
2018-07-11T12:38:11.510Z,21.10
2018-07-11T12:40:39.881Z,21.10
2018-07-11T12:43:08.148Z,21.10
2018-07-11T12:45:36.489Z,21.00
2018-07-11T12:48:10.062Z,21.10
2018-07-11T12:50:38.431Z,21.10
2018-07-11T12:53:06.768Z,21.00
2018-07-11T12:55:35.334Z,21.00
2018-07-11T12:58:03.626Z,21.00
2018-07-11T13:00:31.954Z,20.90
2018-07-11T13:03:00.246Z,21.00
2018-07-11T13:05:28.589Z,21.00
2018-07-11T13:07:56.942Z,21.00
2018-07-11T13:10:25.287Z,21.00
2018-07-11T13:12:53.616Z,21.00
2018-07-11T13:15:21.894Z,21.00
2018-07-11T13:17:50.174Z,21.10
2018-07-11T13:20:18.510Z,21.10
2018-07-11T13:22:46.813Z,21.10
2018-07-11T13:25:15.085Z,21.00
2018-07-11T13:27:43.366Z,21.10
2018-07-11T13:30:11.654Z,21.00
2018-07-11T13:32:39.982Z,20.90
2018-07-11T13:37:36.438Z,20.90
2018-07-11T13:40:04.778Z,20.90
2018-07-11T13:42:33.062Z,20.90
2018-07-11T13:45:01.336Z,20.80
2018-07-11T13:47:29.634Z,20.80
2018-07-11T13:49:57.927Z,20.90
2018-07-11T13:52:26.216Z,20.90
2018-07-11T13:54:54.545Z,20.90
2018-07-11T13:57:23.262Z,20.90
2018-07-11T13:59:51.610Z,21.00
2018-07-11T14:02:20.094Z,21.00
2018-07-11T14:04:48.610Z,21.00
2018-07-11T14:07:16.934Z,21.00
2018-07-11T14:09:45.923Z,21.10
2018-07-11T14:12:14.372Z,21.10
2018-07-11T14:14:42.730Z,21.10
2018-07-11T14:17:11.075Z,21.10
2018-07-11T14:19:39.374Z,21.10
2018-07-11T14:24:35.795Z,21.20
2018-07-11T14:27:04.166Z,21.20
2018-07-11T14:29:32.601Z,21.20
2018-07-11T14:32:01.575Z,21.20
2018-07-11T14:34:29.949Z,21.20
2018-07-11T14:36:58.376Z,21.20
2018-07-11T14:39:26.767Z,21.30
2018-07-11T14:44:23.346Z,21.30
2018-07-11T14:46:51.679Z,21.30
2018-07-11T14:49:21.081Z,21.40
2018-07-11T14:51:49.454Z,21.40
2018-07-11T14:54:17.926Z,21.50
2018-07-11T14:56:47.322Z,21.50
2018-07-11T14:59:15.655Z,21.50
2018-07-11T15:01:44.058Z,21.50
2018-07-11T15:04:12.390Z,21.60
2018-07-11T15:06:40.719Z,21.50
2018-07-11T15:09:09.199Z,21.50
2018-07-11T15:11:37.373Z,21.50
2018-07-11T15:14:05.706Z,21.50
2018-07-11T15:16:34.016Z,21.50
2018-07-11T15:19:02.332Z,21.60
2018-07-11T15:21:30.718Z,21.60
2018-07-11T15:23:59.377Z,21.70
2018-07-11T15:26:27.662Z,21.70
2018-07-11T15:28:56.130Z,21.70
2018-07-11T15:31:24.438Z,21.70
2018-07-11T15:33:53.498Z,21.70
2018-07-11T15:36:21.863Z,21.80
2018-07-11T15:38:50.262Z,21.80
2018-07-11T15:41:18.578Z,21.90
2018-07-11T15:43:47.278Z,21.90
2018-07-11T15:46:15.582Z,21.90
2018-07-11T15:48:44.203Z,21.90
2018-07-11T15:51:12.907Z,22.00
2018-07-11T15:53:41.146Z,22.00
2018-07-11T15:56:09.494Z,22.00
2018-07-11T15:58:38.530Z,21.90
2018-07-11T16:01:08.667Z,22.00
2018-07-11T16:03:43.690Z,22.00
2018-07-11T16:08:44.959Z,22.10
2018-07-11T16:11:13.242Z,22.10
2018-07-11T16:13:41.563Z,22.10
2018-07-11T16:16:09.825Z,22.10
2018-07-11T16:18:38.146Z,22.10
2018-07-11T16:21:06.442Z,22.10
2018-07-11T16:23:34.733Z,22.10
2018-07-11T16:26:03.118Z,22.10
2018-07-11T16:28:31.410Z,22.10
2018-07-11T16:30:59.706Z,22.10
2018-07-11T16:33:28.052Z,22.10
2018-07-11T16:35:56.323Z,22.00
2018-07-11T16:38:24.601Z,21.90
2018-07-11T16:40:53.982Z,22.00
2018-07-11T16:43:22.304Z,21.90
2018-07-11T16:45:50.880Z,21.90
2018-07-11T16:48:19.097Z,22.00
2018-07-11T16:50:47.450Z,22.00
2018-07-11T16:53:15.790Z,22.00
2018-07-11T16:55:44.161Z,22.00
2018-07-11T16:58:16.902Z,21.90
2018-07-11T17:00:46.414Z,21.90
2018-07-11T17:03:15.399Z,21.90
2018-07-11T17:05:49.255Z,21.90
2018-07-11T17:08:21.313Z,21.90
2018-07-11T17:10:49.857Z,22.00
2018-07-11T17:13:21.744Z,21.90
2018-07-11T17:15:51.594Z,21.90
2018-07-11T17:18:30.557Z,21.80
2018-07-11T17:21:01.064Z,21.80
2018-07-11T17:23:29.366Z,21.90
2018-07-11T17:25:57.692Z,21.90
2018-07-11T17:30:54.276Z,22.00
2018-07-11T17:33:22.551Z,22.00
2018-07-11T17:35:53.301Z,22.10
2018-07-11T17:38:26.433Z,22.10
2018-07-11T17:40:54.754Z,22.20
2018-07-11T17:43:34.161Z,22.30
2018-07-11T17:46:03.516Z,22.40
2018-07-11T17:48:40.898Z,22.40
2018-07-11T17:51:18.123Z,22.30
2018-07-11T17:53:54.014Z,22.20
2018-07-11T17:56:22.807Z,22.20
2018-07-11T17:58:54.655Z,22.00
2018-07-11T18:01:31.551Z,22.00
2018-07-11T18:04:13.276Z,22.00
2018-07-11T18:06:45.431Z,22.10
2018-07-11T18:09:14.505Z,22.20
2018-07-11T18:11:52.221Z,22.20
2018-07-11T18:14:29.058Z,22.20
2018-07-11T18:16:59.835Z,22.20
2018-07-11T18:21:43.828Z,22.20
2018-07-11T18:24:25.016Z,22.20
2018-07-11T18:27:10.391Z,22.30
2018-07-11T18:29:49.802Z,22.30
2018-07-11T18:32:26.269Z,22.30
2018-07-11T18:35:21.329Z,22.20
2018-07-11T18:37:55.170Z,22.30
2018-07-11T18:40:36.166Z,22.30
2018-07-11T18:45:18.887Z,22.30
2018-07-11T18:47:57.674Z,22.30
2018-07-11T18:50:33.965Z,22.20
2018-07-11T18:54:10.008Z,22.30
2018-07-11T18:56:49.927Z,22.30
2018-07-11T18:59:30.850Z,22.30
2018-07-11T19:04:07.838Z,22.20
2018-07-11T19:06:50.488Z,22.10
2018-07-11T19:11:56.393Z,22.20
2018-07-11T19:14:37.297Z,22.20
2018-07-11T19:17:24.125Z,22.20
2018-07-11T19:20:13.842Z,22.20
2018-07-11T19:22:50.809Z,22.20
2018-07-11T19:25:33.253Z,22.20
2018-07-11T19:28:15.342Z,22.20
2018-07-11T19:31:01.389Z,22.10
2018-07-11T19:37:21.635Z,22.10
2018-07-11T19:39:59.228Z,22.10
2018-07-11T19:42:39.435Z,22.10
2018-07-11T19:45:19.003Z,22.10
2018-07-11T19:49:58.192Z,22.10
2018-07-11T19:52:41.878Z,22.10
2018-07-11T19:56:51.014Z,22.00
2018-07-11T19:59:19.595Z,22.00
2018-07-11T20:01:48.993Z,22.00
2018-07-11T20:04:17.309Z,22.00
2018-07-11T20:06:45.610Z,22.00
2018-07-11T20:09:13.910Z,22.00
2018-07-11T20:11:42.341Z,22.00
2018-07-11T20:14:10.647Z,22.00
2018-07-11T20:16:39.004Z,22.00
2018-07-11T20:19:07.205Z,21.90
2018-07-11T20:21:35.498Z,21.90
2018-07-11T20:24:03.807Z,21.90
2018-07-11T20:26:32.133Z,21.90
2018-07-11T20:29:00.438Z,21.90
2018-07-11T20:31:28.799Z,21.90
2018-07-11T20:33:57.103Z,21.90
2018-07-11T20:36:25.619Z,21.80
2018-07-11T20:38:53.946Z,21.80
2018-07-11T20:41:22.262Z,21.80
2018-07-11T20:43:50.674Z,21.80
2018-07-11T20:46:19.061Z,21.80
2018-07-11T20:48:47.292Z,21.80
2018-07-11T20:51:15.755Z,21.80
2018-07-11T20:53:44.474Z,21.70
2018-07-11T20:56:13.186Z,21.70
2018-07-11T20:58:53.178Z,21.70
2018-07-11T21:01:33.023Z,21.70
2018-07-11T21:08:54.655Z,21.70
2018-07-11T21:12:35.961Z,21.60
2018-07-11T21:17:54.349Z,21.60
2018-07-11T21:20:22.636Z,21.60
2018-07-11T21:22:50.899Z,21.60
2018-07-11T21:25:19.162Z,21.60
2018-07-11T21:27:47.457Z,21.60
2018-07-11T21:30:15.750Z,21.50
2018-07-11T21:32:44.031Z,21.50
2018-07-11T21:35:12.302Z,21.50
2018-07-11T21:37:40.778Z,21.50
2018-07-11T21:40:09.035Z,21.50
2018-07-11T21:42:37.330Z,21.50
2018-07-11T21:45:05.668Z,21.40
2018-07-11T21:47:33.975Z,21.40
2018-07-11T21:50:02.486Z,21.40
2018-07-11T21:52:30.758Z,21.40
2018-07-11T21:54:59.026Z,21.40
2018-07-11T21:57:27.590Z,21.40
2018-07-11T21:59:55.874Z,21.40
2018-07-11T22:02:24.148Z,21.30
2018-07-11T22:04:52.435Z,21.30
2018-07-11T22:07:20.790Z,21.30
2018-07-11T22:09:49.087Z,21.30
2018-07-11T22:12:17.778Z,21.30
2018-07-11T22:14:46.082Z,21.30
2018-07-11T22:18:29.356Z,21.30
2018-07-11T22:20:56.581Z,21.20
2018-07-11T22:23:23.887Z,21.20
2018-07-11T22:25:51.054Z,21.20
2018-07-11T22:28:18.314Z,21.20
2018-07-11T22:30:45.536Z,21.20
2018-07-11T22:33:12.758Z,21.20
2018-07-11T22:35:40.164Z,21.20
2018-07-11T22:38:07.373Z,21.10
2018-07-11T22:40:34.990Z,21.10
2018-07-11T22:43:02.256Z,21.10
2018-07-11T22:45:29.514Z,21.10
2018-07-11T22:47:56.857Z,21.10
2018-07-11T22:50:24.076Z,21.10
2018-07-11T22:52:51.305Z,21.10
2018-07-11T22:55:18.574Z,21.00
2018-07-11T22:57:45.798Z,21.00
2018-07-11T23:00:13.071Z,21.00
2018-07-11T23:02:40.394Z,21.00
2018-07-11T23:05:07.630Z,21.00
2018-07-11T23:07:35.006Z,20.90
2018-07-11T23:10:02.294Z,20.90
2018-07-11T23:12:29.503Z,20.90
2018-07-11T23:14:56.751Z,20.90
2018-07-11T23:17:23.970Z,20.90
2018-07-11T23:19:51.237Z,20.90
2018-07-11T23:22:18.477Z,20.80
2018-07-11T23:24:45.691Z,20.90
2018-07-11T23:27:12.915Z,20.80
2018-07-11T23:29:40.149Z,20.90
2018-07-11T23:32:07.383Z,20.80
2018-07-11T23:34:34.615Z,20.80
2018-07-11T23:37:01.842Z,20.80
2018-07-11T23:39:29.080Z,20.80
2018-07-11T23:41:56.313Z,20.70
2018-07-11T23:44:23.549Z,20.70
2018-07-11T23:46:50.803Z,20.70
2018-07-11T23:49:18.011Z,20.70
2018-07-11T23:51:45.436Z,20.70
2018-07-11T23:54:12.645Z,20.70
2018-07-11T23:56:39.883Z,20.70
2018-07-11T23:59:07.151Z,20.70
